Orenge 7 — JL6148 — position and weather

sailwx.info

Track history (hours):
 
Tides and Currents Weather Stations Pressure Air Temp Water Temp Dewpoint Dewpoint Depression Visibility Wind Speed Wind Dir Waves Ship Positions

Orenge 7

Last reported at 2015-Jul-05 14:33 UTC. Time now 2015-Jul-06 11:22 UTC.
Position N 34°37' E 134°54'.

Length 163 m; draft 4.9 m.

Type: Passenger vessel. MMSI: 431500186.

Date/timePositionNaut miles runAvg speedWind from/ knotsBaromVisibWave heightAir tempDewpointWater temp
2015-Jul-05 14:33N 34°37' E 134°54'2019.6
2015-Jul-05 13:33N 34°36' E 135°18'6 5.4
2015-Jul-05 12:23N 34°37' E 135°26'0 0.0
2015-Jul-05 11:23N 34°37' E 135°26'0 0.0
2015-Jul-05 10:28N 34°37' E 135°26'0 0.0
2015-Jul-05 09:22N 34°37' E 135°26'0 0.0
2015-Jul-05 08:28N 34°37' E 135°26'0 0.0
2015-Jul-05 07:29N 34°37' E 135°26'0 0.0
2015-Jul-05 06:22N 34°37' E 135°26'0 0.0
2015-Jul-05 05:28N 34°37' E 135°26'0 0.0
2015-Jul-05 04:28N 34°37' E 135°26'0 0.0
2015-Jul-05 03:28N 34°37' E 135°26'0 0.0
2015-Jul-05 02:28N 34°37' E 135°26'0 0.0
2015-Jul-05 01:28N 34°37' E 135°26'0 0.0
2015-Jul-04 23:17N 34°37' E 135°26'0 0.0
2015-Jul-04 21:28N 34°37' E 135°26'6 6.0
2015-Jul-04 20:33N 34°36' E 135°19'1818.3
2015-Jul-04 19:33N 34°36' E 134°57'2 0.1
2015-Jul-03 14:33N 34°37' E 134°55'1919.1
2015-Jul-03 13:33N 34°36' E 135°18'6 4.5
2015-Jul-03 12:12N 34°37' E 135°26'0 0.0
2015-Jul-03 11:18N 34°37' E 135°26'0 0.0
2015-Jul-03 10:30N 34°37' E 135°26'0 0.0
2015-Jul-03 09:30N 34°37' E 135°26'0 0.0
2015-Jul-03 08:24N 34°37' E 135°26'0 0.0
2015-Jul-03 07:30N 34°37' E 135°26'0 0.0
2015-Jul-03 06:24N 34°37' E 135°26'0 0.0
2015-Jul-03 05:30N 34°37' E 135°26'0 0.0
2015-Jul-03 04:30N 34°37' E 135°26'0 0.0
2015-Jul-03 03:12N 34°37' E 135°26'0 0.0
2015-Jul-03 02:12N 34°37' E 135°26'0 0.0
2015-Jul-03 01:18N 34°37' E 135°26'0 0.0
2015-Jul-03 00:30N 34°37' E 135°26'0 0.0
2015-Jul-02 23:30N 34°37' E 135°26'0 0.0
2015-Jul-02 21:10N 34°37' E 135°26'5 9.0
2015-Jul-02 20:33N 34°36' E 135°19'1818.2
2015-Jul-02 19:33N 34°36' E 134°57'2 0.1
2015-Jul-01 14:33N 34°36' E 134°55'1918.7
2015-Jul-01 13:33N 34°36' E 135°18'7 2.1
2015-Jul-01 10:27N 34°37' E 135°26'0 0.0
2015-Jul-01 09:33N 34°37' E 135°26'0 0.0
2015-Jul-01 08:33N 34°37' E 135°26'0 0.0
2015-Jul-01 07:33N 34°37' E 135°26'0 0.0
2015-Jul-01 06:33N 34°37' E 135°26'0 0.0
2015-Jul-01 05:33N 34°37' E 135°26'0 0.0
2015-Jul-01 04:33N 34°37' E 135°26'0 0.0
2015-Jul-01 03:15N 34°37' E 135°26'0 0.0
2015-Jul-01 02:33N 34°37' E 135°26'0 0.0
2015-Jul-01 01:33N 34°37' E 135°26'0 0.0
2015-Jul-01 00:09N 34°37' E 135°26'0 0.0
2015-Jun-30 23:28N 34°37' E 135°26'0 0.0
2015-Jun-30 22:16N 34°37' E 135°26'0 0.0
2015-Jun-30 21:11N 34°37' E 135°26'5 8.0
2015-Jun-30 20:33N 34°36' E 135°20'1717.4
2015-Jun-30 19:33N 34°37' E 134°59'1 0.0
2015-Jun-29 14:33N 34°37' E 134°58'1717.1
2015-Jun-29 13:33N 34°37' E 135°19'6 5.0
2015-Jun-29 12:21N 34°37' E 135°26'0 0.0
2015-Jun-29 11:33N 34°37' E 135°26'0 0.0
2015-Jun-29 10:33N 34°37' E 135°26'0 0.0
2015-Jun-29 09:33N 34°37' E 135°26'0 0.0
2015-Jun-29 08:33N 34°37' E 135°26'0 0.0
2015-Jun-29 07:27N 34°37' E 135°26'0 0.0
2015-Jun-29 06:27N 34°37' E 135°26'0 0.0
2015-Jun-29 05:33N 34°37' E 135°26'0 0.0
2015-Jun-29 04:33N 34°37' E 135°26'0 0.0
2015-Jun-29 03:27N 34°37' E 135°26'0 0.0
2015-Jun-29 02:33N 34°37' E 135°26'0 0.0
2015-Jun-29 01:27N 34°37' E 135°26'0 0.0
2015-Jun-29 00:09N 34°37' E 135°26'0 0.0
2015-Jun-28 23:27N 34°37' E 135°26'0 0.0
2015-Jun-28 22:27N 34°37' E 135°26'0 0.0
2015-Jun-28 21:33N 34°37' E 135°26'5 5.4
2015-Jun-28 20:33N 34°36' E 135°19'1817.0
2015-Jun-28 19:32N 34°37' E 134°58'1 0.0
2015-Jun-27 14:33N 34°37' E 134°57'1817.7
2015-Jun-27 13:33N 34°37' E 135°18'6 5.5
2015-Jun-27 12:26N 34°37' E 135°26'0 0.0
2015-Jun-27 11:26N 34°37' E 135°26'0 0.0
2015-Jun-27 10:32N 34°37' E 135°26'0 0.0
2015-Jun-27 09:26N 34°37' E 135°26'0 0.0
2015-Jun-27 08:32N 34°37' E 135°26'0 0.0
2015-Jun-27 07:32N 34°37' E 135°26'0 0.0
2015-Jun-27 06:26N 34°37' E 135°26'0 0.0
2015-Jun-27 05:32N 34°37' E 135°26'0 0.0
2015-Jun-27 04:32N 34°37' E 135°26'0 0.0
2015-Jun-27 03:20N 34°37' E 135°26'0 0.0
2015-Jun-27 02:32N 34°37' E 135°26'0 0.0
2015-Jun-27 01:32N 34°37' E 135°26'0 0.0
2015-Jun-26 21:20N 34°37' E 135°26'5 6.6
2015-Jun-26 20:33N 34°36' E 135°20'1817.6
2015-Jun-26 19:33N 34°37' E 134°58'  
Track history (hours):
 
Tides and Currents Weather Stations Pressure Air Temp Water Temp Dewpoint Dewpoint Depression Visibility Wind Speed Wind Dir Waves Ship Positions

Orenge 7

Last reported at 2015-Jul-05 14:33 UTC. Time now 2015-Jul-06 11:22 UTC.
Position N 34°37' E 134°54'.

Length 163 m; draft 4.9 m.

Type: Passenger vessel. MMSI: 431500186.

Date/timePositionNaut miles runAvg speedWind from/ knotsBaromVisibWave heightAir tempDewpointWater temp
2015-Jul-05 14:33N 34°37' E 134°54'2019.6
2015-Jul-05 13:33N 34°36' E 135°18'6 5.4
2015-Jul-05 12:23N 34°37' E 135°26'0 0.0
2015-Jul-05 11:23N 34°37' E 135°26'0 0.0
2015-Jul-05 10:28N 34°37' E 135°26'0 0.0
2015-Jul-05 09:22N 34°37' E 135°26'0 0.0
2015-Jul-05 08:28N 34°37' E 135°26'0 0.0
2015-Jul-05 07:29N 34°37' E 135°26'0 0.0
2015-Jul-05 06:22N 34°37' E 135°26'0 0.0
2015-Jul-05 05:28N 34°37' E 135°26'0 0.0
2015-Jul-05 04:28N 34°37' E 135°26'0 0.0
2015-Jul-05 03:28N 34°37' E 135°26'0 0.0
2015-Jul-05 02:28N 34°37' E 135°26'0 0.0
2015-Jul-05 01:28N 34°37' E 135°26'0 0.0
2015-Jul-04 23:17N 34°37' E 135°26'0 0.0
2015-Jul-04 21:28N 34°37' E 135°26'6 6.0
2015-Jul-04 20:33N 34°36' E 135°19'1818.3
2015-Jul-04 19:33N 34°36' E 134°57'2 0.1
2015-Jul-03 14:33N 34°37' E 134°55'1919.1
2015-Jul-03 13:33N 34°36' E 135°18'6 4.5
2015-Jul-03 12:12N 34°37' E 135°26'0 0.0
2015-Jul-03 11:18N 34°37' E 135°26'0 0.0
2015-Jul-03 10:30N 34°37' E 135°26'0 0.0
2015-Jul-03 09:30N 34°37' E 135°26'0 0.0
2015-Jul-03 08:24N 34°37' E 135°26'0 0.0
2015-Jul-03 07:30N 34°37' E 135°26'0 0.0
2015-Jul-03 06:24N 34°37' E 135°26'0 0.0
2015-Jul-03 05:30N 34°37' E 135°26'0 0.0
2015-Jul-03 04:30N 34°37' E 135°26'0 0.0
2015-Jul-03 03:12N 34°37' E 135°26'0 0.0
2015-Jul-03 02:12N 34°37' E 135°26'0 0.0
2015-Jul-03 01:18N 34°37' E 135°26'0 0.0
2015-Jul-03 00:30N 34°37' E 135°26'0 0.0
2015-Jul-02 23:30N 34°37' E 135°26'0 0.0
2015-Jul-02 21:10N 34°37' E 135°26'5 9.0
2015-Jul-02 20:33N 34°36' E 135°19'1818.2
2015-Jul-02 19:33N 34°36' E 134°57'2 0.1
2015-Jul-01 14:33N 34°36' E 134°55'1918.7
2015-Jul-01 13:33N 34°36' E 135°18'7 2.1
2015-Jul-01 10:27N 34°37' E 135°26'0 0.0
2015-Jul-01 09:33N 34°37' E 135°26'0 0.0
2015-Jul-01 08:33N 34°37' E 135°26'0 0.0
2015-Jul-01 07:33N 34°37' E 135°26'0 0.0
2015-Jul-01 06:33N 34°37' E 135°26'0 0.0
2015-Jul-01 05:33N 34°37' E 135°26'0 0.0
2015-Jul-01 04:33N 34°37' E 135°26'0 0.0
2015-Jul-01 03:15N 34°37' E 135°26'0 0.0
2015-Jul-01 02:33N 34°37' E 135°26'0 0.0
2015-Jul-01 01:33N 34°37' E 135°26'0 0.0
2015-Jul-01 00:09N 34°37' E 135°26'0 0.0
2015-Jun-30 23:28N 34°37' E 135°26'0 0.0
2015-Jun-30 22:16N 34°37' E 135°26'0 0.0
2015-Jun-30 21:11N 34°37' E 135°26'5 8.0
2015-Jun-30 20:33N 34°36' E 135°20'1717.4
2015-Jun-30 19:33N 34°37' E 134°59'1 0.0
2015-Jun-29 14:33N 34°37' E 134°58'1717.1
2015-Jun-29 13:33N 34°37' E 135°19'6 5.0
2015-Jun-29 12:21N 34°37' E 135°26'0 0.0
2015-Jun-29 11:33N 34°37' E 135°26'0 0.0
2015-Jun-29 10:33N 34°37' E 135°26'0 0.0
2015-Jun-29 09:33N 34°37' E 135°26'0 0.0
2015-Jun-29 08:33N 34°37' E 135°26'0 0.0
2015-Jun-29 07:27N 34°37' E 135°26'0 0.0
2015-Jun-29 06:27N 34°37' E 135°26'0 0.0
2015-Jun-29 05:33N 34°37' E 135°26'0 0.0
2015-Jun-29 04:33N 34°37' E 135°26'0 0.0
2015-Jun-29 03:27N 34°37' E 135°26'0 0.0
2015-Jun-29 02:33N 34°37' E 135°26'0 0.0
2015-Jun-29 01:27N 34°37' E 135°26'0 0.0
2015-Jun-29 00:09N 34°37' E 135°26'0 0.0
2015-Jun-28 23:27N 34°37' E 135°26'0 0.0
2015-Jun-28 22:27N 34°37' E 135°26'0 0.0
2015-Jun-28 21:33N 34°37' E 135°26'5 5.4
2015-Jun-28 20:33N 34°36' E 135°19'1817.0
2015-Jun-28 19:32N 34°37' E 134°58'1 0.0
2015-Jun-27 14:33N 34°37' E 134°57'1817.7
2015-Jun-27 13:33N 34°37' E 135°18'6 5.5
2015-Jun-27 12:26N 34°37' E 135°26'0 0.0
2015-Jun-27 11:26N 34°37' E 135°26'0 0.0
2015-Jun-27 10:32N 34°37' E 135°26'0 0.0
2015-Jun-27 09:26N 34°37' E 135°26'0 0.0
2015-Jun-27 08:32N 34°37' E 135°26'0 0.0
2015-Jun-27 07:32N 34°37' E 135°26'0 0.0
2015-Jun-27 06:26N 34°37' E 135°26'0 0.0
2015-Jun-27 05:32N 34°37' E 135°26'0 0.0
2015-Jun-27 04:32N 34°37' E 135°26'0 0.0
2015-Jun-27 03:20N 34°37' E 135°26'0 0.0
2015-Jun-27 02:32N 34°37' E 135°26'0 0.0
2015-Jun-27 01:32N 34°37' E 135°26'0 0.0
2015-Jun-26 21:20N 34°37' E 135°26'5 6.6
2015-Jun-26 20:33N 34°36' E 135°20'1817.6
2015-Jun-26 19:33N 34°37' E 134°58'  

Dump ship's entire track history